Tappahannock, Virginia
Current Conditions -  °F | °C
As of 9:15 AM on Thursday 27 Nov 2014 (Local Time) from KXSA Reporting Station
Haze Haze  
Wind Chill:   Ceiling: 200
Heat Index:   Visibility: 1.5mi
Dew Point:   Wind: 0mph
Humidity: 93%   Direction: NA
Pressure: 30.06"   Gusts: NA
Location:  37.93°N, 76.86°W
Report Text: KXSA 271415Z AUTO 00000KT 1 1/2SM BR OVC002 04/03 A3006 RMK AO2 T00350025
Loading
Personal Weather Stations






























Interactive Weather Map New forecast layout! Learn more

10-Day Weather Forecast

Advertisements
Track Severe Weather on mobile